createdAt,value
2019-04-01T00:00:52.184Z,5.60
2019-04-01T00:03:21.074Z,5.50
2019-04-01T00:05:50.069Z,5.50
2019-04-01T00:08:19.029Z,5.40
2019-04-01T00:10:47.872Z,5.40
2019-04-01T00:13:16.897Z,5.40
2019-04-01T00:15:45.849Z,5.40
2019-04-01T00:18:14.682Z,5.30
2019-04-01T00:20:43.518Z,5.30
2019-04-01T00:23:12.476Z,5.30
2019-04-01T00:25:41.609Z,5.30
2019-04-01T00:28:10.612Z,5.20
2019-04-01T00:30:39.526Z,5.20
2019-04-01T00:33:08.356Z,5.20
2019-04-01T00:35:37.202Z,5.20
2019-04-01T00:38:06.033Z,5.10
2019-04-01T00:40:34.955Z,5.10
2019-04-01T00:43:10.520Z,5.10
2019-04-01T00:45:40.494Z,5.10
2019-04-01T00:48:09.463Z,5.00
2019-04-01T00:50:38.358Z,5.00
2019-04-01T00:53:07.265Z,5.00
2019-04-01T00:55:36.190Z,5.00
2019-04-01T00:58:05.129Z,4.90
2019-04-01T01:00:34.412Z,4.90
2019-04-01T01:03:03.235Z,4.90
2019-04-01T01:05:32.103Z,4.80
2019-04-01T01:08:01.019Z,4.80
2019-04-01T01:10:29.975Z,4.80
2019-04-01T01:12:58.817Z,4.70
2019-04-01T01:15:27.947Z,4.70
2019-04-01T01:17:56.766Z,4.70
2019-04-01T01:20:25.728Z,4.70
2019-04-01T01:22:54.702Z,4.70
2019-04-01T01:25:23.595Z,4.70
2019-04-01T01:27:52.412Z,4.70
2019-04-01T01:30:21.337Z,4.60
2019-04-01T01:32:50.199Z,4.60
2019-04-01T01:35:19.152Z,4.60
2019-04-01T01:37:48.017Z,4.50
2019-04-01T01:40:16.810Z,4.50
2019-04-01T01:42:45.729Z,4.50
2019-04-01T01:45:14.631Z,4.50
2019-04-01T01:47:43.429Z,4.50
2019-04-01T01:50:12.434Z,4.50
2019-04-01T01:52:41.250Z,4.40
2019-04-01T01:55:10.142Z,4.40
2019-04-01T01:57:38.998Z,4.40
2019-04-01T02:00:08.338Z,4.40
2019-04-01T02:02:37.153Z,4.40
2019-04-01T02:05:06.175Z,4.30
2019-04-01T02:07:34.969Z,4.30
2019-04-01T02:10:04.686Z,4.30
2019-04-01T02:12:33.575Z,4.30
2019-04-01T02:15:02.397Z,4.30
2019-04-01T02:17:31.311Z,4.20
2019-04-01T02:20:00.370Z,4.20
2019-04-01T02:22:29.353Z,4.20
2019-04-01T02:24:58.186Z,4.20
2019-04-01T02:27:27.143Z,4.10
2019-04-01T02:29:55.994Z,4.10
2019-04-01T02:32:24.914Z,4.10
2019-04-01T02:34:53.718Z,4.10
2019-04-01T02:37:22.626Z,4.10
2019-04-01T02:39:51.515Z,4.00
2019-04-01T02:42:20.614Z,4.00
2019-04-01T02:44:49.417Z,4.00
2019-04-01T02:47:18.244Z,4.00
2019-04-01T02:49:47.135Z,3.90
2019-04-01T02:52:16.096Z,3.90
2019-04-01T02:54:44.908Z,3.90
2019-04-01T02:57:13.793Z,3.90
2019-04-01T02:59:42.720Z,3.80
2019-04-01T03:02:11.723Z,3.80
2019-04-01T03:04:40.553Z,3.80
2019-04-01T03:07:09.460Z,3.80
2019-04-01T03:09:38.373Z,3.80
2019-04-01T03:12:07.273Z,3.80
2019-04-01T03:14:36.084Z,3.80
2019-04-01T03:17:05.112Z,3.70
2019-04-01T03:19:34.117Z,3.70
2019-04-01T03:22:03.085Z,3.70
2019-04-01T03:24:32.336Z,3.70
2019-04-01T03:27:01.359Z,3.70
2019-04-01T03:29:30.185Z,3.60
2019-04-01T03:31:59.016Z,3.70
2019-04-01T03:34:27.871Z,3.60
2019-04-01T03:36:56.683Z,3.60
2019-04-01T03:39:25.492Z,3.60
2019-04-01T03:41:54.315Z,3.60
2019-04-01T03:44:23.166Z,3.50
2019-04-01T03:46:52.119Z,3.60
2019-04-01T03:49:21.130Z,3.50
2019-04-01T03:51:50.020Z,3.50
2019-04-01T03:54:18.855Z,3.50
2019-04-01T03:56:47.752Z,3.50
2019-04-01T03:59:16.700Z,3.50
2019-04-01T04:01:45.607Z,3.40
2019-04-01T04:04:14.457Z,3.50
2019-04-01T04:06:43.334Z,3.40
2019-04-01T04:09:12.406Z,3.40
2019-04-01T04:11:41.285Z,3.40
2019-04-01T04:14:10.130Z,3.40
2019-04-01T04:16:39.141Z,3.40
2019-04-01T04:19:08.017Z,3.40
2019-04-01T04:21:36.825Z,3.30
2019-04-01T04:24:05.734Z,3.30
2019-04-01T04:26:34.783Z,3.30
2019-04-01T04:29:03.686Z,3.30
2019-04-01T04:31:32.663Z,3.30
2019-04-01T04:34:01.490Z,3.20
2019-04-01T04:36:30.455Z,3.20
2019-04-01T04:38:59.346Z,3.20
2019-04-01T04:41:28.314Z,3.20
2019-04-01T04:43:57.158Z,3.20
2019-04-01T04:46:26.026Z,3.10
2019-04-01T04:48:54.942Z,3.10
2019-04-01T04:51:23.855Z,3.10
2019-04-01T04:53:52.741Z,3.10
2019-04-01T04:56:21.593Z,3.10
2019-04-01T04:58:50.431Z,3.10
2019-04-01T05:01:19.262Z,3.00
2019-04-01T05:03:48.247Z,3.00
2019-04-01T05:06:17.266Z,3.00
2019-04-01T05:08:46.177Z,3.00
2019-04-01T05:11:15.141Z,3.00
2019-04-01T05:13:44.004Z,3.00
2019-04-01T05:16:12.966Z,3.00
2019-04-01T05:18:41.805Z,3.00
2019-04-01T05:21:11.142Z,2.90
2019-04-01T05:23:40.741Z,3.00
2019-04-01T05:26:11.229Z,2.90
2019-04-01T05:28:42.993Z,2.90
2019-04-01T05:31:14.848Z,2.90
2019-04-01T05:33:55.277Z,2.90
2019-04-01T05:36:17.152Z,2.90
2019-04-01T05:38:46.041Z,2.80
2019-04-01T05:41:15.070Z,2.80
2019-04-01T05:43:44.649Z,2.80
2019-04-01T05:46:13.630Z,2.80
2019-04-01T05:48:42.697Z,2.80
2019-04-01T05:51:11.641Z,2.80
2019-04-01T05:53:40.627Z,2.80
2019-04-01T05:56:09.641Z,2.80
2019-04-01T05:58:38.614Z,2.80
2019-04-01T06:01:11.612Z,2.80
2019-04-01T06:03:40.938Z,2.80
2019-04-01T06:06:09.917Z,2.80
2019-04-01T06:08:38.914Z,2.80
2019-04-01T06:11:07.872Z,2.80
2019-04-01T06:13:36.804Z,2.80
2019-04-01T06:16:06.199Z,2.80
2019-04-01T06:18:35.368Z,2.80
2019-04-01T06:21:04.369Z,2.80
2019-04-01T06:23:33.479Z,2.80
2019-04-01T06:26:02.582Z,2.80
2019-04-01T06:28:31.511Z,2.80
2019-04-01T06:31:00.497Z,2.80
2019-04-01T06:33:29.785Z,2.80
2019-04-01T06:35:58.859Z,2.80
2019-04-01T06:38:28.397Z,2.80
2019-04-01T06:41:11.018Z,2.90
2019-04-01T06:43:39.989Z,2.90
2019-04-01T06:46:09.057Z,2.90
2019-04-01T06:48:38.148Z,2.90
2019-04-01T06:51:07.135Z,2.90
2019-04-01T06:53:36.234Z,2.90
2019-04-01T06:56:05.420Z,2.90
2019-04-01T06:58:35.745Z,2.90
2019-04-01T07:01:04.906Z,2.90
2019-04-01T07:03:33.917Z,3.00
2019-04-01T07:06:03.175Z,3.00
2019-04-01T07:08:32.727Z,3.00
2019-04-01T07:11:01.678Z,3.10
2019-04-01T07:13:31.654Z,3.10
2019-04-01T07:16:14.407Z,3.10
2019-04-01T07:18:31.285Z,3.20
2019-04-01T07:21:00.332Z,3.20
2019-04-01T07:23:29.287Z,3.20
2019-04-01T07:25:58.123Z,3.30
2019-04-01T07:28:27.093Z,3.30
2019-04-01T07:30:55.998Z,3.30
2019-04-01T07:33:25.027Z,3.40
2019-04-01T07:35:53.938Z,3.50
2019-04-01T07:38:22.914Z,3.50
2019-04-01T07:40:51.890Z,3.60
2019-04-01T07:43:20.990Z,3.60
2019-04-01T07:45:49.994Z,3.70
2019-04-01T07:48:18.915Z,3.80
2019-04-01T07:50:47.840Z,3.80
2019-04-01T07:53:17.066Z,3.90
2019-04-01T07:55:46.053Z,4.00
2019-04-01T07:58:15.170Z,4.00
2019-04-01T08:00:44.261Z,4.10
2019-04-01T08:03:13.527Z,4.10
2019-04-01T08:05:42.450Z,4.20
2019-04-01T08:08:11.360Z,4.30
2019-04-01T08:10:40.234Z,4.30
2019-04-01T08:13:09.233Z,4.40
2019-04-01T08:15:38.252Z,4.50
2019-04-01T08:18:07.253Z,4.50
2019-04-01T08:20:36.318Z,4.60
2019-04-01T08:23:05.254Z,4.70
2019-04-01T08:25:34.876Z,4.70
2019-04-01T08:28:03.894Z,4.80
2019-04-01T08:30:32.829Z,4.80
2019-04-01T08:33:01.862Z,5.00
2019-04-01T08:35:30.785Z,5.00
2019-04-01T08:37:59.745Z,5.10
2019-04-01T08:40:28.665Z,5.20
2019-04-01T08:42:57.602Z,5.20
2019-04-01T08:45:26.510Z,5.40
2019-04-01T08:47:55.523Z,5.40
2019-04-01T08:50:24.700Z,5.50
2019-04-01T08:52:53.692Z,5.60
2019-04-01T08:55:22.712Z,5.70
2019-04-01T08:57:51.690Z,5.70
2019-04-01T09:00:20.702Z,5.80
2019-04-01T09:02:49.699Z,5.90
2019-04-01T09:05:18.733Z,6.00
2019-04-01T09:07:48.691Z,6.10
2019-04-01T09:10:17.749Z,6.20
2019-04-01T09:12:46.763Z,6.30
2019-04-01T09:15:15.940Z,6.40
2019-04-01T09:17:44.898Z,6.50
2019-04-01T09:20:13.899Z,6.60
2019-04-01T09:22:42.727Z,6.70
2019-04-01T09:25:11.777Z,6.80
2019-04-01T09:27:40.684Z,6.80
2019-04-01T09:30:10.486Z,7.00
2019-04-01T09:32:39.671Z,7.10
2019-04-01T09:35:08.641Z,7.20
2019-04-01T09:37:37.630Z,7.30
2019-04-01T09:40:06.859Z,7.40
2019-04-01T09:42:35.831Z,7.50
2019-04-01T09:45:05.715Z,7.60
2019-04-01T09:47:34.675Z,7.70
2019-04-01T09:50:04.311Z,7.80
2019-04-01T09:52:33.226Z,7.90
2019-04-01T09:55:02.121Z,8.00
2019-04-01T09:57:31.006Z,8.20
2019-04-01T09:59:59.916Z,8.30
2019-04-01T10:02:32.195Z,8.40
2019-04-01T10:04:59.770Z,8.50
2019-04-01T10:07:28.951Z,8.60
2019-04-01T10:09:57.899Z,8.70
2019-04-01T10:12:26.832Z,8.80
2019-04-01T10:14:55.667Z,8.90
2019-04-01T10:17:24.561Z,9.00
2019-04-01T10:19:53.463Z,9.10
2019-04-01T10:22:22.351Z,9.20
2019-04-01T10:24:51.267Z,9.30
2019-04-01T10:27:20.186Z,9.50
2019-04-01T10:29:49.155Z,9.60
2019-04-01T10:32:18.131Z,9.70
2019-04-01T10:34:47.037Z,9.80
2019-04-01T10:37:16.044Z,10.00
2019-04-01T10:39:44.947Z,10.10
2019-04-01T10:42:13.830Z,10.20
2019-04-01T10:44:42.775Z,10.30
2019-04-01T10:47:11.660Z,10.40
2019-04-01T10:49:40.922Z,10.60
2019-04-01T10:52:10.003Z,10.70
2019-04-01T10:54:38.993Z,10.80
2019-04-01T10:57:07.982Z,11.00
2019-04-01T10:59:36.952Z,11.00
2019-04-01T11:02:05.988Z,11.20
2019-04-01T11:04:34.989Z,11.30
2019-04-01T11:07:04.124Z,11.40
2019-04-01T11:09:38.423Z,11.50
2019-04-01T11:12:03.917Z,11.60
2019-04-01T11:14:32.834Z,11.70
2019-04-01T11:17:04.307Z,11.90
2019-04-01T11:19:32.746Z,12.00
2019-04-01T11:22:01.659Z,12.10
2019-04-01T11:24:30.521Z,12.20
2019-04-01T11:26:59.374Z,12.30
2019-04-01T11:29:28.285Z,12.40
2019-04-01T11:31:57.181Z,12.50
2019-04-01T11:34:26.693Z,12.60
2019-04-01T11:36:55.912Z,12.70
2019-04-01T11:39:25.010Z,12.80
2019-04-01T11:41:53.998Z,12.80
2019-04-01T11:44:23.009Z,13.00
2019-04-01T11:46:53.390Z,13.10
2019-04-01T11:49:22.669Z,13.20
2019-04-01T11:51:51.599Z,13.30
2019-04-01T11:54:20.462Z,13.40
2019-04-01T11:56:49.364Z,13.40
2019-04-01T11:59:18.245Z,13.60
2019-04-01T12:01:47.539Z,13.60
2019-04-01T12:04:16.873Z,13.70
2019-04-01T12:06:45.718Z,13.80
2019-04-01T12:09:14.698Z,13.90
2019-04-01T12:11:43.717Z,14.00
2019-04-01T12:14:12.757Z,14.10
2019-04-01T12:16:41.742Z,14.20
2019-04-01T12:19:10.710Z,14.30
2019-04-01T12:21:41.424Z,14.40
2019-04-01T12:24:10.763Z,14.40
2019-04-01T12:26:39.753Z,14.50
2019-04-01T12:29:11.841Z,14.60
2019-04-01T12:31:39.382Z,14.70
2019-04-01T12:34:08.194Z,14.80
2019-04-01T12:36:37.062Z,14.80
2019-04-01T12:39:08.115Z,14.90
2019-04-01T12:41:37.025Z,15.00
2019-04-01T12:44:06.104Z,15.00
2019-04-01T12:46:34.997Z,15.10
2019-04-01T12:49:03.941Z,15.20
2019-04-01T12:51:32.869Z,15.30
2019-04-01T12:54:01.789Z,15.30
2019-04-01T12:56:30.715Z,15.40
2019-04-01T12:58:59.572Z,15.50
2019-04-01T13:01:28.528Z,15.60
2019-04-01T13:03:57.478Z,15.60
2019-04-01T13:06:26.623Z,15.70
2019-04-01T13:08:55.670Z,15.70
2019-04-01T13:11:24.598Z,15.80
2019-04-01T13:13:53.507Z,15.90
2019-04-01T13:16:22.484Z,15.90
2019-04-01T13:18:51.584Z,16.00
2019-04-01T13:21:20.560Z,16.00
2019-04-01T13:23:49.561Z,16.10
2019-04-01T13:26:18.445Z,16.10
2019-04-01T13:28:47.473Z,16.20
2019-04-01T13:31:16.395Z,16.20
2019-04-01T13:33:45.230Z,16.20
2019-04-01T13:36:14.239Z,16.30
2019-04-01T13:38:44.158Z,16.40
2019-04-01T13:41:14.687Z,16.50
2019-04-01T13:43:44.106Z,16.50
2019-04-01T13:46:12.994Z,16.60
2019-04-01T13:48:56.543Z,16.60
2019-04-01T13:51:12.513Z,16.70
2019-04-01T13:53:41.431Z,16.80
2019-04-01T13:56:12.275Z,16.80
2019-04-01T13:58:41.535Z,17.00
2019-04-01T14:01:10.389Z,17.00
2019-04-01T14:03:39.211Z,17.10
2019-04-01T14:06:08.147Z,17.20
2019-04-01T14:08:37.086Z,17.30
2019-04-01T14:11:06.260Z,17.40
2019-04-01T14:13:35.583Z,17.50
2019-04-01T14:16:04.576Z,17.60
2019-04-01T14:18:33.508Z,17.60
2019-04-01T14:21:15.341Z,17.70
2019-04-01T14:23:32.929Z,17.80
2019-04-01T14:26:01.838Z,17.90
2019-04-01T14:28:30.789Z,18.00
2019-04-01T14:30:59.687Z,18.00
2019-04-01T14:33:28.490Z,18.20
2019-04-01T14:35:57.331Z,18.20
2019-04-01T14:38:27.242Z,18.30
2019-04-01T14:40:58.142Z,18.40
2019-04-01T14:43:26.761Z,18.50
2019-04-01T14:45:55.643Z,18.50
2019-04-01T14:48:24.570Z,18.60
2019-04-01T14:50:53.471Z,18.80
2019-04-01T14:53:22.482Z,18.80
2019-04-01T14:55:51.401Z,18.90
2019-04-01T14:58:20.234Z,19.00
2019-04-01T15:00:49.166Z,19.10
2019-04-01T15:03:18.278Z,19.20
2019-04-01T15:05:47.275Z,19.30
2019-04-01T15:08:19.503Z,19.30
2019-04-01T15:10:48.108Z,19.30
2019-04-01T15:13:17.075Z,19.40
2019-04-01T15:15:46.221Z,19.40
2019-04-01T15:18:16.425Z,19.40
2019-04-01T15:20:45.689Z,19.60
2019-04-01T15:23:14.676Z,19.60
2019-04-01T15:25:43.529Z,19.70
2019-04-01T15:28:12.396Z,19.70
2019-04-01T15:30:41.248Z,19.80
2019-04-01T15:33:10.090Z,19.90
2019-04-01T15:35:38.957Z,19.90
2019-04-01T15:38:07.887Z,20.10
2019-04-01T15:40:37.090Z,20.10
2019-04-01T15:43:06.181Z,20.20
2019-04-01T15:45:35.458Z,20.20
2019-04-01T15:48:04.853Z,20.20
2019-04-01T15:50:33.808Z,20.30
2019-04-01T15:53:03.003Z,20.30
2019-04-01T15:55:32.009Z,20.40
2019-04-01T15:58:00.969Z,20.40
2019-04-01T16:00:30.002Z,20.50
2019-04-01T16:02:58.962Z,20.50
2019-04-01T16:05:30.408Z,20.50
2019-04-01T16:07:58.470Z,20.50
2019-04-01T16:10:29.349Z,20.50
2019-04-01T16:12:58.243Z,20.60
2019-04-01T16:15:27.153Z,20.60
2019-04-01T16:17:56.075Z,20.60
2019-04-01T16:20:26.003Z,20.60
2019-04-01T16:22:55.434Z,20.60
2019-04-01T16:25:24.359Z,20.60
2019-04-01T16:27:53.214Z,20.60
2019-04-01T16:30:22.342Z,20.50
2019-04-01T16:32:51.189Z,20.50
2019-04-01T16:35:20.033Z,20.50
2019-04-01T16:37:48.924Z,20.40
2019-04-01T16:40:18.398Z,20.30
2019-04-01T16:42:48.165Z,20.20
2019-04-01T16:45:18.157Z,20.10
2019-04-01T16:47:48.538Z,20.00
2019-04-01T16:50:17.843Z,19.90
2019-04-01T16:52:46.815Z,19.90
2019-04-01T16:55:18.277Z,19.70
2019-04-01T16:57:46.842Z,19.60
2019-04-01T17:00:16.846Z,19.50
2019-04-01T17:02:45.664Z,19.40
2019-04-01T17:05:17.952Z,19.20
2019-04-01T17:07:47.142Z,19.10
2019-04-01T17:10:21.982Z,19.00
2019-04-01T17:12:51.009Z,18.80
2019-04-01T17:15:21.304Z,18.70
2019-04-01T17:17:50.331Z,18.60
2019-04-01T17:20:19.349Z,18.40
2019-04-01T17:22:48.363Z,18.30
2019-04-01T17:25:17.367Z,18.20
2019-04-01T17:27:46.353Z,18.10
2019-04-01T17:30:15.432Z,18.00
2019-04-01T17:32:44.398Z,17.80
2019-04-01T17:35:13.754Z,17.70
2019-04-01T17:37:42.833Z,17.60
2019-04-01T17:40:13.016Z,17.50
2019-04-01T17:42:41.990Z,17.40
2019-04-01T17:45:33.004Z,17.30
2019-04-01T17:48:02.103Z,17.20
2019-04-01T17:50:31.145Z,17.00
2019-04-01T17:53:00.155Z,16.90
2019-04-01T17:55:29.141Z,16.80
2019-04-01T17:57:58.473Z,16.70
2019-04-01T18:00:28.320Z,16.60
2019-04-01T18:02:57.307Z,16.50
2019-04-01T18:05:27.117Z,16.30
2019-04-01T18:07:56.080Z,16.20
2019-04-01T18:10:25.097Z,16.10
2019-04-01T18:12:54.071Z,16.00
2019-04-01T18:15:22.995Z,15.90
2019-04-01T18:17:51.914Z,15.80
2019-04-01T18:20:20.834Z,15.70
2019-04-01T18:22:49.857Z,15.60
2019-04-01T18:25:18.836Z,15.50
2019-04-01T18:27:47.687Z,15.40
2019-04-01T18:30:18.743Z,15.30
2019-04-01T18:32:51.301Z,15.20
2019-04-01T18:35:18.215Z,15.00
2019-04-01T18:37:47.205Z,15.00
2019-04-01T18:40:16.110Z,14.90
2019-04-01T18:42:44.992Z,14.70
2019-04-01T18:45:14.003Z,14.60
2019-04-01T18:47:42.927Z,14.60
2019-04-01T18:50:12.243Z,14.50
2019-04-01T18:52:41.158Z,14.40
2019-04-01T18:55:10.454Z,14.30
2019-04-01T18:57:39.341Z,14.20
2019-04-01T19:00:09.620Z,14.10
2019-04-01T19:02:38.521Z,14.10
2019-04-01T19:05:07.501Z,13.90
2019-04-01T19:07:36.325Z,13.90
2019-04-01T19:10:06.812Z,13.80
2019-04-01T19:12:36.462Z,13.70
2019-04-01T19:15:06.745Z,13.70
2019-04-01T19:17:35.723Z,13.50
2019-04-01T19:20:05.643Z,13.50
2019-04-01T19:22:34.518Z,13.40
2019-04-01T19:25:03.770Z,13.30
2019-04-01T19:27:32.646Z,13.20
2019-04-01T19:30:01.482Z,13.10
2019-04-01T19:32:30.486Z,13.10
2019-04-01T19:34:59.449Z,13.00
2019-04-01T19:37:28.625Z,12.90
2019-04-01T19:39:57.687Z,12.80
2019-04-01T19:42:26.738Z,12.70
2019-04-01T19:44:55.578Z,12.60
2019-04-01T19:47:24.485Z,12.60
2019-04-01T19:49:53.456Z,12.50
2019-04-01T19:52:22.371Z,12.40
2019-04-01T19:54:51.203Z,12.30
2019-04-01T19:57:20.066Z,12.20
2019-04-01T19:59:48.910Z,12.20
2019-04-01T20:02:17.883Z,12.10
2019-04-01T20:04:46.805Z,12.10
2019-04-01T20:07:16.102Z,12.00
2019-04-01T20:09:46.278Z,11.90
2019-04-01T20:12:15.284Z,11.90
2019-04-01T20:14:44.102Z,11.80
2019-04-01T20:17:13.196Z,11.70
2019-04-01T20:19:42.113Z,11.70
2019-04-01T20:22:11.041Z,11.60
2019-04-01T20:24:39.909Z,11.50
2019-04-01T20:27:08.801Z,11.50
2019-04-01T20:29:37.802Z,11.40
2019-04-01T20:32:17.180Z,11.30
2019-04-01T20:34:37.440Z,11.30
2019-04-01T20:37:06.425Z,11.20
2019-04-01T20:39:35.454Z,11.10
2019-04-01T20:42:07.173Z,11.10
2019-04-01T20:44:35.833Z,11.00
2019-04-01T20:47:04.860Z,10.90
2019-04-01T20:49:33.677Z,10.90
2019-04-01T20:52:02.695Z,10.80
2019-04-01T20:54:31.607Z,10.80
2019-04-01T20:57:00.479Z,10.80
2019-04-01T20:59:29.470Z,10.70
2019-04-01T21:01:58.290Z,10.60
2019-04-01T21:04:27.568Z,10.60
2019-04-01T21:06:56.495Z,10.50
2019-04-01T21:09:25.326Z,10.50
2019-04-01T21:11:54.274Z,10.40
2019-04-01T21:14:23.183Z,10.40
2019-04-01T21:16:52.113Z,10.30
2019-04-01T21:19:21.186Z,10.20
2019-04-01T21:21:50.182Z,10.20
2019-04-01T21:24:19.028Z,10.10
2019-04-01T21:26:47.942Z,10.00
2019-04-01T21:29:16.821Z,10.00
2019-04-01T21:31:45.714Z,10.00
2019-04-01T21:34:14.856Z,10.00
2019-04-01T21:36:43.778Z,9.90
2019-04-01T21:39:12.782Z,9.80
2019-04-01T21:41:41.610Z,9.80
2019-04-01T21:44:10.506Z,9.70
2019-04-01T21:46:39.326Z,9.60
2019-04-01T21:49:08.399Z,9.60
2019-04-01T21:51:37.650Z,9.50
2019-04-01T21:54:06.623Z,9.50
2019-04-01T21:56:35.673Z,9.40
2019-04-01T21:59:04.630Z,9.40
2019-04-01T22:01:34.522Z,9.30
2019-04-01T22:04:03.511Z,9.30
2019-04-01T22:06:32.413Z,9.20
2019-04-01T22:09:01.346Z,9.20
2019-04-01T22:11:30.349Z,9.10
2019-04-01T22:13:59.211Z,9.10
2019-04-01T22:16:28.116Z,9.00
2019-04-01T22:18:56.962Z,9.00
2019-04-01T22:21:25.815Z,8.90
2019-04-01T22:23:54.655Z,8.90
2019-04-01T22:26:23.548Z,8.90
2019-04-01T22:28:52.448Z,8.80
2019-04-01T22:31:21.379Z,8.80
2019-04-01T22:33:50.261Z,8.70
2019-04-01T22:36:30.224Z,8.70
2019-04-01T22:38:49.642Z,8.60
2019-04-01T22:41:18.539Z,8.60
2019-04-01T22:43:47.354Z,8.60
2019-04-01T22:46:18.201Z,8.50
2019-04-01T22:48:46.889Z,8.50
2019-04-01T22:51:16.011Z,8.50
2019-04-01T22:53:44.943Z,8.40
2019-04-01T22:56:13.824Z,8.40
2019-04-01T22:58:42.669Z,8.30
2019-04-01T23:01:11.658Z,8.30
2019-04-01T23:03:40.610Z,8.30
2019-04-01T23:06:09.588Z,8.20
2019-04-01T23:08:38.406Z,8.20
2019-04-01T23:11:07.318Z,8.20
2019-04-01T23:13:36.277Z,8.10
2019-04-01T23:16:05.381Z,8.10
2019-04-01T23:18:34.243Z,8.00
2019-04-01T23:21:03.074Z,8.00
2019-04-01T23:23:32.018Z,8.00
2019-04-01T23:26:00.892Z,8.00
2019-04-01T23:28:29.869Z,8.00
2019-04-01T23:30:58.886Z,8.00
2019-04-01T23:33:27.685Z,7.90
2019-04-01T23:35:56.595Z,7.90
2019-04-01T23:38:25.555Z,7.90
2019-04-01T23:40:54.381Z,7.80
2019-04-01T23:43:23.241Z,7.80
2019-04-01T23:45:52.170Z,7.80
2019-04-01T23:48:21.006Z,7.80
2019-04-01T23:50:49.831Z,7.80
2019-04-01T23:53:18.679Z,7.70
2019-04-01T23:55:47.505Z,7.70
2019-04-01T23:58:16.349Z,7.70
